createdAt,value
2023-04-28T00:00:04.642Z,19.07
2023-04-28T00:02:35.369Z,20.00
2023-04-28T00:05:03.581Z,19.43
2023-04-28T00:07:31.762Z,18.90
2023-04-28T00:09:59.799Z,17.43
2023-04-28T00:12:27.880Z,17.50
2023-04-28T00:14:55.935Z,19.03
2023-04-28T00:17:24.172Z,18.48
2023-04-28T00:19:53.978Z,20.13
2023-04-28T00:22:22.040Z,22.07
2023-04-28T00:24:50.050Z,19.43
2023-04-28T00:27:18.065Z,21.73
2023-04-28T00:29:46.141Z,20.27
2023-04-28T00:32:14.422Z,21.97
2023-04-28T00:34:42.520Z,20.48
2023-04-28T00:37:12.125Z,19.77
2023-04-28T00:39:41.666Z,18.95
2023-04-28T00:42:09.643Z,20.70
2023-04-28T00:44:38.075Z,22.73
2023-04-28T00:47:06.228Z,19.57
2023-04-28T00:49:35.161Z,19.90
2023-04-28T00:52:06.960Z,21.23
2023-04-28T00:54:36.518Z,22.23
2023-04-28T00:57:04.981Z,24.27
2023-04-28T00:59:33.000Z,21.17
2023-04-28T01:02:01.924Z,25.73
2023-04-28T01:04:31.498Z,23.53
2023-04-28T01:07:01.843Z,22.30
2023-04-28T01:09:30.110Z,20.83
2023-04-28T01:12:00.266Z,21.83
2023-04-28T01:14:49.254Z,20.87
2023-04-28T01:17:18.473Z,21.90
2023-04-28T01:19:46.517Z,22.52
2023-04-28T01:22:16.710Z,23.63
2023-04-28T01:24:46.793Z,24.77
2023-04-28T01:27:16.656Z,22.70
2023-04-28T01:29:46.001Z,24.27
2023-04-28T01:32:14.733Z,22.97
2023-04-28T01:34:42.864Z,24.40
2023-04-28T01:37:10.895Z,26.00
2023-04-28T01:39:38.984Z,26.03
2023-04-28T01:42:08.535Z,22.92
2023-04-28T01:44:36.621Z,26.73
2023-04-28T01:47:04.635Z,22.90
2023-04-28T01:49:32.664Z,23.93
2023-04-28T01:52:00.824Z,22.30
2023-04-28T01:54:29.293Z,23.93
2023-04-28T01:56:57.426Z,26.17
2023-04-28T01:59:28.258Z,25.80
2023-04-28T02:01:56.386Z,23.37
2023-04-28T02:04:24.678Z,22.93
2023-04-28T02:06:52.958Z,27.23
2023-04-28T02:09:20.993Z,25.37
2023-04-28T02:11:49.067Z,29.40
2023-04-28T02:14:17.557Z,26.13
2023-04-28T02:16:47.276Z,22.93
2023-04-28T02:19:16.619Z,25.63
2023-04-28T02:21:44.770Z,27.73
2023-04-28T02:24:14.624Z,28.53
2023-04-28T02:26:42.884Z,24.20
2023-04-28T02:29:10.943Z,28.20
2023-04-28T02:31:39.100Z,26.50
2023-04-28T02:34:08.557Z,25.43
2023-04-28T02:36:36.808Z,26.27
2023-04-28T02:39:05.044Z,29.10
2023-04-28T02:41:34.643Z,28.40
2023-04-28T02:44:02.685Z,28.27
2023-04-28T02:46:30.789Z,28.33
2023-04-28T02:48:58.892Z,27.70
2023-04-28T02:51:29.660Z,26.87
2023-04-28T02:53:57.682Z,28.60
2023-04-28T02:56:26.192Z,27.50
2023-04-28T02:58:54.330Z,26.20
2023-04-28T03:01:22.462Z,27.37
2023-04-28T03:03:50.744Z,25.60
2023-04-28T03:06:18.965Z,25.43
2023-04-28T03:08:48.415Z,27.67
2023-04-28T03:11:16.450Z,27.93
2023-04-28T03:13:44.591Z,26.13
2023-04-28T03:16:12.695Z,30.30
2023-04-28T03:18:40.827Z,26.93
2023-04-28T03:21:09.209Z,27.03
2023-04-28T03:23:37.201Z,30.07
2023-04-28T03:26:07.175Z,26.97
2023-04-28T03:28:35.296Z,29.33
2023-04-28T03:31:03.718Z,25.93
2023-04-28T03:33:32.060Z,23.70
2023-04-28T03:36:01.313Z,25.57
2023-04-28T03:38:29.626Z,25.07
2023-04-28T03:40:57.673Z,26.03
2023-04-28T03:43:37.507Z,26.13
2023-04-28T03:46:25.147Z,24.87
2023-04-28T03:48:53.698Z,26.63
2023-04-28T03:51:21.724Z,25.47
2023-04-28T03:53:50.029Z,24.07
2023-04-28T03:56:18.706Z,29.43
2023-04-28T03:58:48.580Z,25.17
2023-04-28T04:01:16.857Z,22.47
2023-04-28T04:03:45.381Z,23.67
2023-04-28T04:06:14.607Z,22.57
2023-04-28T04:08:43.169Z,22.67
2023-04-28T04:11:11.495Z,23.93
2023-04-28T04:13:40.091Z,23.47
2023-04-28T04:16:15.926Z,22.90
2023-04-28T04:18:44.646Z,24.93
2023-04-28T04:21:35.758Z,24.10
2023-04-28T04:24:04.244Z,26.73
2023-04-28T04:26:32.948Z,22.97
2023-04-28T04:29:02.019Z,21.70
2023-04-28T04:31:31.822Z,23.13
2023-04-28T04:34:00.260Z,25.07
2023-04-28T04:36:28.616Z,25.27
2023-04-28T04:38:57.205Z,21.43
2023-04-28T04:41:26.825Z,23.73
2023-04-28T04:44:08.020Z,22.83
2023-04-28T04:46:43.500Z,21.47
2023-04-28T04:49:12.096Z,21.60
2023-04-28T04:51:40.606Z,23.87
2023-04-28T04:54:09.176Z,22.23
2023-04-28T04:56:39.258Z,23.63
2023-04-28T04:59:07.990Z,22.20
2023-04-28T05:01:57.982Z,22.87
2023-04-28T05:04:26.440Z,25.67
2023-04-28T05:06:54.831Z,22.63
2023-04-28T05:09:23.906Z,20.47
2023-04-28T05:11:52.392Z,21.23
2023-04-28T05:14:20.628Z,22.93
2023-04-28T05:16:49.088Z,22.20
2023-04-28T05:19:24.897Z,24.10
2023-04-28T05:21:54.777Z,29.67
2023-04-28T05:24:24.748Z,25.03
2023-04-28T05:26:54.222Z,21.70
2023-04-28T05:29:22.739Z,20.60
2023-04-28T05:31:51.260Z,21.03
2023-04-28T05:34:21.638Z,24.87
2023-04-28T05:36:51.440Z,24.87
2023-04-28T05:39:21.251Z,22.67
2023-04-28T05:41:49.551Z,23.27
2023-04-28T05:44:18.158Z,21.37
2023-04-28T05:46:47.698Z,22.40
2023-04-28T05:49:16.151Z,25.47
2023-04-28T05:51:45.142Z,23.37
2023-04-28T05:54:14.997Z,23.70
2023-04-28T05:56:47.401Z,20.30
2023-04-28T05:59:16.002Z,23.13
2023-04-28T06:01:44.611Z,22.80
2023-04-28T06:04:13.270Z,21.17
2023-04-28T06:06:41.776Z,21.63
2023-04-28T06:09:10.253Z,22.15
2023-04-28T06:11:39.950Z,21.10
2023-04-28T06:14:08.295Z,20.35
2023-04-28T06:16:36.572Z,21.77
2023-04-28T06:19:05.209Z,21.13
2023-04-28T06:21:33.744Z,22.17
2023-04-28T06:24:02.397Z,25.50
2023-04-28T06:26:31.069Z,26.25
2023-04-28T06:29:00.781Z,22.07
2023-04-28T06:31:31.101Z,22.83
2023-04-28T06:33:59.384Z,23.15
2023-04-28T06:36:28.376Z,27.70
2023-04-28T06:38:56.666Z,20.25
2023-04-28T06:41:24.935Z,19.63
2023-04-28T06:43:54.669Z,21.95
2023-04-28T06:46:28.678Z,21.27
2023-04-28T06:48:57.578Z,21.88
2023-04-28T06:51:26.856Z,22.67
2023-04-28T06:53:55.573Z,18.92
2023-04-28T06:56:23.870Z,21.55
2023-04-28T06:58:52.180Z,19.90
2023-04-28T07:01:20.559Z,18.58
2023-04-28T07:03:50.458Z,19.15
2023-04-28T07:06:18.836Z,20.50
2023-04-28T07:08:47.117Z,20.35
2023-04-28T07:11:16.574Z,24.80
2023-04-28T07:13:46.541Z,18.92
2023-04-28T07:16:14.904Z,17.50
2023-04-28T07:18:43.248Z,20.23
2023-04-28T07:21:13.004Z,18.88
2023-04-28T07:23:41.927Z,18.52
2023-04-28T07:26:10.340Z,18.20
2023-04-28T07:28:38.615Z,22.17
2023-04-28T07:31:06.919Z,19.80
2023-04-28T07:33:35.243Z,18.17
2023-04-28T07:36:03.538Z,21.10
2023-04-28T07:38:35.165Z,20.73
2023-04-28T07:41:04.299Z,18.65
2023-04-28T07:43:33.560Z,19.83
2023-04-28T07:46:01.919Z,19.20
2023-04-28T07:48:30.536Z,19.48
2023-04-28T07:50:58.792Z,17.90
2023-04-28T07:53:27.855Z,23.13
2023-04-28T07:55:57.536Z,19.15
2023-04-28T07:58:25.862Z,18.40
2023-04-28T08:00:54.118Z,17.15
2023-04-28T08:03:22.918Z,18.63
2023-04-28T08:05:51.532Z,17.90
2023-04-28T08:08:19.887Z,18.13
2023-04-28T08:10:48.265Z,17.50
2023-04-28T08:13:18.085Z,19.77
2023-04-28T08:15:46.474Z,18.67
2023-04-28T08:18:14.879Z,17.73
2023-04-28T08:20:43.112Z,20.70
2023-04-28T08:23:11.767Z,17.00
2023-04-28T08:25:40.270Z,18.10
2023-04-28T08:28:08.874Z,17.75
2023-04-28T08:30:38.874Z,19.02
2023-04-28T08:33:07.844Z,17.25
2023-04-28T08:35:36.237Z,16.90
2023-04-28T08:38:04.711Z,17.83
2023-04-28T08:40:33.183Z,18.30
2023-04-28T08:43:01.678Z,17.90
2023-04-28T08:45:32.807Z,17.30
2023-04-28T08:48:04.852Z,20.80
2023-04-28T08:50:35.190Z,17.17
2023-04-28T08:53:05.886Z,17.38
2023-04-28T08:55:34.953Z,17.33
2023-04-28T08:58:04.577Z,18.33
2023-04-28T09:00:32.880Z,16.35
2023-04-28T09:03:02.671Z,16.92
2023-04-28T09:05:31.167Z,17.88
2023-04-28T09:07:59.464Z,17.73
2023-04-28T09:10:28.264Z,16.15
2023-04-28T09:12:58.209Z,18.13
2023-04-28T09:15:33.581Z,17.50
2023-04-28T09:18:04.421Z,19.15
2023-04-28T09:20:33.910Z,17.92
2023-04-28T09:23:16.492Z,17.02
2023-04-28T09:25:58.567Z,19.27
2023-04-28T09:28:27.109Z,16.52
2023-04-28T09:30:55.968Z,17.70
2023-04-28T09:33:26.073Z,16.63
2023-04-28T09:35:55.156Z,17.50
2023-04-28T09:38:24.429Z,20.15
2023-04-28T09:40:55.166Z,17.95
2023-04-28T09:43:28.429Z,15.65
2023-04-28T09:45:57.409Z,17.17
2023-04-28T09:48:32.216Z,16.75
2023-04-28T09:51:02.690Z,17.38
2023-04-28T09:53:31.834Z,17.75
2023-04-28T09:56:01.211Z,19.90
2023-04-28T09:58:30.645Z,22.30
2023-04-28T10:01:00.889Z,19.52
2023-04-28T10:03:31.688Z,15.82
2023-04-28T10:06:00.888Z,19.73
2023-04-28T10:08:29.567Z,19.33
2023-04-28T10:10:58.637Z,18.70
2023-04-28T10:13:27.137Z,17.65
2023-04-28T10:15:58.615Z,15.77
2023-04-28T10:18:27.426Z,16.42
2023-04-28T10:21:01.494Z,19.77
2023-04-28T10:23:48.113Z,20.02
2023-04-28T10:26:19.785Z,19.17
2023-04-28T10:28:48.804Z,18.38
2023-04-28T10:31:20.806Z,15.23
2023-04-28T10:33:50.137Z,18.25
2023-04-28T10:36:52.530Z,18.00
2023-04-28T10:39:20.730Z,19.25
2023-04-28T10:41:49.472Z,18.70
2023-04-28T10:44:42.677Z,18.63
2023-04-28T10:47:11.626Z,16.40
2023-04-28T10:50:11.763Z,19.15
2023-04-28T10:52:53.526Z,18.67
2023-04-28T10:55:30.685Z,15.52
2023-04-28T10:58:36.284Z,19.13
2023-04-28T11:01:26.902Z,17.90
2023-04-28T11:04:00.445Z,15.82
2023-04-28T11:06:31.159Z,18.88
2023-04-28T11:09:02.332Z,17.30
2023-04-28T11:11:30.993Z,15.13
2023-04-28T11:14:32.071Z,19.13
2023-04-28T11:17:02.742Z,19.15
2023-04-28T11:19:33.150Z,20.83
2023-04-28T11:22:03.079Z,20.27
2023-04-28T11:24:32.824Z,18.85
2023-04-28T11:27:02.274Z,18.73
2023-04-28T11:29:35.200Z,17.50
2023-04-28T11:32:03.800Z,21.17
2023-04-28T11:34:32.786Z,18.08
2023-04-28T11:37:00.902Z,16.10
2023-04-28T11:39:30.687Z,16.30
2023-04-28T11:42:02.255Z,19.10
2023-04-28T11:44:31.826Z,24.17
2023-04-28T11:47:01.788Z,17.77
2023-04-28T11:49:33.218Z,19.13
2023-04-28T11:52:06.445Z,20.17
2023-04-28T11:54:34.693Z,18.52
2023-04-28T11:57:05.043Z,21.25
2023-04-28T11:59:34.821Z,21.20
2023-04-28T12:02:04.668Z,21.05
2023-04-28T12:04:35.804Z,22.17
2023-04-28T12:07:06.152Z,21.52
2023-04-28T12:09:35.597Z,19.95
2023-04-28T12:12:06.613Z,22.95
2023-04-28T12:14:54.809Z,22.08
2023-04-28T12:17:27.456Z,20.98
2023-04-28T12:19:55.848Z,20.30
2023-04-28T12:22:24.363Z,23.92
2023-04-28T12:25:09.340Z,21.95
2023-04-28T12:27:42.236Z,23.77
2023-04-28T12:30:26.479Z,24.25
2023-04-28T12:32:56.012Z,24.00
2023-04-28T12:35:25.410Z,28.77
2023-04-28T12:37:53.761Z,26.90
2023-04-28T12:40:22.093Z,24.48
2023-04-28T12:42:52.156Z,23.38
2023-04-28T12:45:20.315Z,24.55
2023-04-28T12:47:48.498Z,23.90
2023-04-28T12:50:16.860Z,25.90
2023-04-28T12:52:44.936Z,22.60
2023-04-28T12:55:12.965Z,26.10
2023-04-28T12:57:41.087Z,25.23
2023-04-28T13:00:11.698Z,24.08
2023-04-28T13:02:40.289Z,24.83
2023-04-28T13:05:09.375Z,24.05
2023-04-28T13:07:37.597Z,26.02
2023-04-28T13:10:06.318Z,26.58
2023-04-28T13:12:34.586Z,23.85
2023-04-28T13:15:03.910Z,27.00
2023-04-28T13:17:34.042Z,24.55
2023-04-28T13:20:05.229Z,24.40
2023-04-28T13:22:33.635Z,25.40
2023-04-28T13:25:01.690Z,26.98
2023-04-28T13:27:30.664Z,23.60
2023-04-28T13:29:59.412Z,24.75
2023-04-28T13:32:28.114Z,25.42
2023-04-28T13:34:57.686Z,24.27
2023-04-28T13:37:25.900Z,23.83
2023-04-28T13:39:56.876Z,25.42
2023-04-28T13:42:25.062Z,23.30
2023-04-28T13:44:53.279Z,22.80
2023-04-28T13:47:21.738Z,28.92
2023-04-28T13:49:50.611Z,24.60
2023-04-28T13:52:20.537Z,28.90
2023-04-28T13:54:48.938Z,25.30
2023-04-28T13:57:17.263Z,23.80
2023-04-28T13:59:45.823Z,24.23
2023-04-28T14:02:14.077Z,23.52
2023-04-28T14:04:48.400Z,28.30
2023-04-28T14:07:16.894Z,29.20
2023-04-28T14:09:46.779Z,25.83
2023-04-28T14:12:15.604Z,28.13
2023-04-28T14:14:44.278Z,23.48
2023-04-28T14:17:12.696Z,24.55
2023-04-28T14:19:40.978Z,28.60
2023-04-28T14:22:09.140Z,26.75
2023-04-28T14:24:37.564Z,27.70
2023-04-28T14:27:07.470Z,26.75
2023-04-28T14:29:35.580Z,28.80
2023-04-28T14:32:03.744Z,29.88
2023-04-28T14:34:31.980Z,27.52
2023-04-28T14:37:00.224Z,28.83
2023-04-28T14:39:28.408Z,27.25
2023-04-28T14:41:56.607Z,34.10
2023-04-28T14:44:26.296Z,30.55
2023-04-28T14:46:54.646Z,29.73
2023-04-28T14:49:23.353Z,26.95
2023-04-28T14:51:51.568Z,31.73
2023-04-28T14:54:19.819Z,24.83
2023-04-28T14:56:47.832Z,29.60
2023-04-28T14:59:16.053Z,28.55
2023-04-28T15:01:46.124Z,30.77
2023-04-28T15:04:14.386Z,26.45
2023-04-28T15:06:42.571Z,27.95
2023-04-28T15:09:10.707Z,29.05
2023-04-28T15:11:38.748Z,32.45
2023-04-28T15:14:06.956Z,33.65
2023-04-28T15:16:35.096Z,33.60
2023-04-28T15:19:04.608Z,29.15
2023-04-28T15:21:33.908Z,32.22
2023-04-28T15:24:01.937Z,28.65
2023-04-28T15:26:30.143Z,32.58
2023-04-28T15:28:58.664Z,31.55
2023-04-28T15:31:26.999Z,31.95
2023-04-28T15:33:55.208Z,33.95
2023-04-28T15:36:24.630Z,33.30
2023-04-28T15:38:53.022Z,29.13
2023-04-28T15:41:21.491Z,31.38
2023-04-28T15:43:50.551Z,34.63
2023-04-28T15:46:18.695Z,32.58
2023-04-28T15:48:46.816Z,31.67
2023-04-28T15:51:14.907Z,32.45
2023-04-28T15:53:44.333Z,36.40
2023-04-28T15:56:12.684Z,33.80
2023-04-28T15:58:40.746Z,33.45
2023-04-28T16:01:08.862Z,37.20
2023-04-28T16:03:37.484Z,33.92
2023-04-28T16:06:06.437Z,36.33
2023-04-28T16:08:34.973Z,38.38
2023-04-28T16:11:05.111Z,35.75
2023-04-28T16:13:36.973Z,38.35
2023-04-28T16:16:06.322Z,38.80
2023-04-28T16:18:34.493Z,40.58
2023-04-28T16:21:02.521Z,37.10
2023-04-28T16:23:31.215Z,42.33
2023-04-28T16:25:59.403Z,42.78
2023-04-28T16:28:28.905Z,42.05
2023-04-28T16:30:57.140Z,46.67
2023-04-28T16:33:25.325Z,44.15
2023-04-28T16:35:56.970Z,51.85
2023-04-28T16:38:25.277Z,49.50
2023-04-28T16:40:53.374Z,45.92
2023-04-28T16:43:22.361Z,53.97
2023-04-28T16:45:51.758Z,44.05
2023-04-28T16:48:21.563Z,43.03
2023-04-28T16:50:49.596Z,46.17
2023-04-28T16:53:17.670Z,47.42
2023-04-28T16:55:45.900Z,46.42
2023-04-28T16:58:14.008Z,51.67
2023-04-28T17:00:42.038Z,46.45
2023-04-28T17:03:11.753Z,47.85
2023-04-28T17:05:40.064Z,46.47
2023-04-28T17:08:08.136Z,45.75
2023-04-28T17:10:38.141Z,48.40
2023-04-28T17:13:06.892Z,49.30
2023-04-28T17:15:36.725Z,44.63
2023-04-28T17:18:04.961Z,47.95
2023-04-28T17:20:34.404Z,49.65
2023-04-28T17:23:02.441Z,48.53
2023-04-28T17:25:30.589Z,45.60
2023-04-28T17:27:59.730Z,54.40
2023-04-28T17:30:27.803Z,49.58
2023-04-28T17:32:55.866Z,46.47
2023-04-28T17:35:24.115Z,48.95
2023-04-28T17:37:53.503Z,49.55
2023-04-28T17:40:24.121Z,47.17
2023-04-28T17:42:52.177Z,45.47
2023-04-28T17:45:20.370Z,53.20
2023-04-28T17:47:48.564Z,49.30
2023-04-28T17:50:16.714Z,50.53
2023-04-28T17:52:44.805Z,50.28
2023-04-28T17:56:09.690Z,48.42
2023-04-28T18:07:40.109Z,50.30
2023-04-28T18:11:11.165Z,55.08
2023-04-28T18:19:14.301Z,51.38
2023-04-28T18:22:00.247Z,52.22
2023-04-28T18:24:29.904Z,56.05
2023-04-28T18:26:58.011Z,47.53
2023-04-28T18:29:26.211Z,42.65
2023-04-28T18:31:55.961Z,44.63
2023-04-28T18:34:24.157Z,45.97
2023-04-28T18:36:52.282Z,40.92
2023-04-28T18:39:20.292Z,45.33
2023-04-28T18:41:49.745Z,35.42
2023-04-28T18:44:17.940Z,41.83
2023-04-28T18:46:46.160Z,38.45
2023-04-28T18:49:14.688Z,43.55
2023-04-28T18:51:43.687Z,41.55
2023-04-28T18:54:11.884Z,37.47
2023-04-28T18:56:40.164Z,38.25
2023-04-28T18:59:09.767Z,42.08
2023-04-28T19:01:38.888Z,47.10
2023-04-28T19:04:07.395Z,49.42
2023-04-28T19:06:36.228Z,47.70
2023-04-28T19:09:04.562Z,55.38
2023-04-28T19:11:32.607Z,56.58
2023-04-28T19:14:02.801Z,48.03
2023-04-28T19:16:32.393Z,52.00
2023-04-28T19:19:00.469Z,51.33
2023-04-28T19:21:29.767Z,50.42
2023-04-28T19:23:57.874Z,52.42
2023-04-28T19:26:25.930Z,47.22
2023-04-28T19:28:54.115Z,42.53
2023-04-28T19:31:22.155Z,46.85
2023-04-28T19:33:51.784Z,36.92
2023-04-28T19:36:19.836Z,50.20
2023-04-28T19:38:47.861Z,39.15
2023-04-28T19:41:15.999Z,41.67
2023-04-28T19:43:44.537Z,44.15
2023-04-28T19:46:13.026Z,43.22
2023-04-28T19:48:42.526Z,39.55
2023-04-28T19:51:12.244Z,43.75
2023-04-28T19:53:41.015Z,39.15
2023-04-28T19:56:10.200Z,38.75
2023-04-28T19:58:38.266Z,42.05
2023-04-28T20:01:07.802Z,39.28
2023-04-28T20:03:36.203Z,41.55
2023-04-28T20:06:05.297Z,38.75
2023-04-28T20:08:34.743Z,49.63
2023-04-28T20:11:02.795Z,50.38
2023-04-28T20:13:31.332Z,40.50
2023-04-28T20:15:59.356Z,41.17
2023-04-28T20:18:27.405Z,47.45
2023-04-28T20:20:55.416Z,39.58
2023-04-28T20:23:23.544Z,48.03
2023-04-28T20:25:53.219Z,41.35
2023-04-28T20:28:21.284Z,56.50
2023-04-28T20:30:49.354Z,46.75
2023-04-28T20:33:18.577Z,52.47
2023-04-28T20:35:46.616Z,48.63
2023-04-28T20:38:14.748Z,49.70
2023-04-28T20:40:45.265Z,47.30
2023-04-28T20:43:14.689Z,56.45
2023-04-28T20:45:42.984Z,51.15
2023-04-28T20:48:11.340Z,50.25
2023-04-28T20:50:41.015Z,50.78
2023-04-28T20:53:09.161Z,52.67
2023-04-28T20:55:37.252Z,47.95
2023-04-28T20:58:06.864Z,58.78
2023-04-28T21:00:40.200Z,47.60
2023-04-28T21:03:15.050Z,51.92
2023-04-28T21:05:45.631Z,53.63
2023-04-28T21:08:14.387Z,65.78
2023-04-28T21:10:42.653Z,60.95
2023-04-28T21:13:10.906Z,58.72
2023-04-28T21:15:41.649Z,60.00
2023-04-28T21:18:10.172Z,66.13
2023-04-28T21:20:38.469Z,61.15
2023-04-28T21:23:07.553Z,57.75
2023-04-28T21:25:36.817Z,57.22
2023-04-28T21:28:05.556Z,63.70
2023-04-28T21:30:33.811Z,75.80
2023-04-28T21:33:03.477Z,63.60
2023-04-28T21:35:31.810Z,62.08
2023-04-28T21:38:00.069Z,66.88
2023-04-28T21:40:28.989Z,57.03
2023-04-28T21:42:57.228Z,62.55
2023-04-28T21:45:25.460Z,63.53
2023-04-28T21:47:53.874Z,79.80
2023-04-28T21:50:23.646Z,60.30
2023-04-28T21:52:52.064Z,66.88
2023-04-28T21:55:20.327Z,59.65
2023-04-28T21:57:48.607Z,60.05
2023-04-28T22:00:17.530Z,70.88
2023-04-28T22:02:46.049Z,70.88
2023-04-28T22:05:14.480Z,71.85
2023-04-28T22:07:44.410Z,66.07
2023-04-28T22:10:13.625Z,79.13
2023-04-28T22:12:41.952Z,79.15
2023-04-28T22:15:11.173Z,63.72
2023-04-28T22:17:39.615Z,73.68
2023-04-28T22:20:09.391Z,75.60
2023-04-28T22:22:37.722Z,71.13
2023-04-28T22:25:08.836Z,83.93
2023-04-28T22:27:37.448Z,63.05
2023-04-28T22:30:08.306Z,59.30
2023-04-28T22:32:36.674Z,71.57
2023-04-28T22:35:05.114Z,94.00
2023-04-28T22:37:34.129Z,71.15
2023-04-28T22:40:02.614Z,58.35
2023-04-28T22:42:32.593Z,77.85
2023-04-28T22:45:03.345Z,65.10
2023-04-28T22:47:32.171Z,71.93
2023-04-28T22:50:00.598Z,62.25
2023-04-28T22:52:28.887Z,58.92
2023-04-28T22:54:57.124Z,57.47
2023-04-28T22:57:25.736Z,59.20
2023-04-28T22:59:55.491Z,67.25
2023-04-28T23:02:24.050Z,73.88
2023-04-28T23:04:52.615Z,67.38
2023-04-28T23:07:21.154Z,61.05
2023-04-28T23:09:49.642Z,64.93
2023-04-28T23:12:18.114Z,60.55
2023-04-28T23:14:46.468Z,65.30
2023-04-28T23:17:16.418Z,65.47
2023-04-28T23:19:44.803Z,69.88
2023-04-28T23:22:13.125Z,71.78
2023-04-28T23:24:42.423Z,68.80
2023-04-28T23:27:11.173Z,64.90
2023-04-28T23:29:39.474Z,66.72
2023-04-28T23:32:08.004Z,62.78
2023-04-28T23:34:38.292Z,63.65
2023-04-28T23:37:06.681Z,70.85
2023-04-28T23:39:35.044Z,67.65
2023-04-28T23:42:03.489Z,73.35
2023-04-28T23:44:31.810Z,63.67
2023-04-28T23:47:00.068Z,64.32
2023-04-28T23:49:28.402Z,74.88
2023-04-28T23:51:59.427Z,55.67
2023-04-28T23:54:27.750Z,62.30
2023-04-28T23:56:56.906Z,67.28
2023-04-28T23:59:25.665Z,55.00
